sensor_id;sensor_type;location;lat;lon;timestamp;P1;durP1;ratioP1;P2;durP2;ratioP2
51499;SDS011;39101;53.478;6.158;2022-11-20T00:01:13;7.33;;;4.40;;
51499;SDS011;39101;53.478;6.158;2022-11-20T00:03:40;9.97;;;5.10;;
51499;SDS011;39101;53.478;6.158;2022-11-20T00:06:08;8.63;;;4.90;;
51499;SDS011;39101;53.478;6.158;2022-11-20T00:08:35;8.13;;;4.40;;
51499;SDS011;39101;53.478;6.158;2022-11-20T00:11:02;7.27;;;3.90;;
51499;SDS011;39101;53.478;6.158;2022-11-20T00:13:32;8.47;;;3.97;;
51499;SDS011;39101;53.478;6.158;2022-11-20T00:15:59;8.43;;;4.80;;
51499;SDS011;39101;53.478;6.158;2022-11-20T00:18:26;10.93;;;5.50;;
51499;SDS011;39101;53.478;6.158;2022-11-20T00:20:53;9.27;;;4.90;;
51499;SDS011;39101;53.478;6.158;2022-11-20T00:23:24;10.63;;;4.97;;
51499;SDS011;39101;53.478;6.158;2022-11-20T00:25:50;9.73;;;5.00;;
51499;SDS011;39101;53.478;6.158;2022-11-20T00:28:16;7.83;;;4.77;;
51499;SDS011;39101;53.478;6.158;2022-11-20T00:30:41;7.90;;;4.87;;
51499;SDS011;39101;53.478;6.158;2022-11-20T00:33:07;8.40;;;5.37;;
51499;SDS011;39101;53.478;6.158;2022-11-20T00:35:32;9.97;;;5.90;;
51499;SDS011;39101;53.478;6.158;2022-11-20T00:37:58;10.70;;;5.77;;
51499;SDS011;39101;53.478;6.158;2022-11-20T00:40:24;9.33;;;6.20;;
51499;SDS011;39101;53.478;6.158;2022-11-20T00:42:49;11.73;;;5.83;;
51499;SDS011;39101;53.478;6.158;2022-11-20T00:45:15;12.67;;;7.33;;
51499;SDS011;39101;53.478;6.158;2022-11-20T00:47:40;11.93;;;6.30;;
51499;SDS011;39101;53.478;6.158;2022-11-20T00:50:06;11.13;;;6.43;;
51499;SDS011;39101;53.478;6.158;2022-11-20T00:52:32;10.57;;;6.33;;
51499;SDS011;39101;53.478;6.158;2022-11-20T00:54:58;12.33;;;6.83;;
51499;SDS011;39101;53.478;6.158;2022-11-20T00:57:24;12.47;;;7.03;;
51499;SDS011;39101;53.478;6.158;2022-11-20T00:59:49;11.97;;;6.97;;
51499;SDS011;39101;53.478;6.158;2022-11-20T01:02:15;12.30;;;7.70;;
51499;SDS011;39101;53.478;6.158;2022-11-20T01:04:41;12.77;;;6.93;;
51499;SDS011;39101;53.478;6.158;2022-11-20T01:07:07;9.53;;;6.17;;
51499;SDS011;39101;53.478;6.158;2022-11-20T01:09:33;10.13;;;5.80;;
51499;SDS011;39101;53.478;6.158;2022-11-20T01:11:58;9.80;;;6.33;;
51499;SDS011;39101;53.478;6.158;2022-11-20T01:14:25;11.30;;;6.40;;
51499;SDS011;39101;53.478;6.158;2022-11-20T01:16:51;10.63;;;5.97;;
51499;SDS011;39101;53.478;6.158;2022-11-20T01:19:18;10.30;;;5.57;;
51499;SDS011;39101;53.478;6.158;2022-11-20T01:21:47;9.67;;;5.30;;
51499;SDS011;39101;53.478;6.158;2022-11-20T01:24:15;9.83;;;5.40;;
51499;SDS011;39101;53.478;6.158;2022-11-20T01:26:42;9.13;;;4.70;;
51499;SDS011;39101;53.478;6.158;2022-11-20T01:29:13;7.30;;;4.87;;
51499;SDS011;39101;53.478;6.158;2022-11-20T01:31:44;8.77;;;4.77;;
51499;SDS011;39101;53.478;6.158;2022-11-20T01:34:11;9.77;;;5.10;;
51499;SDS011;39101;53.478;6.158;2022-11-20T01:36:38;10.00;;;4.70;;
51499;SDS011;39101;53.478;6.158;2022-11-20T01:39:06;7.70;;;4.30;;
51499;SDS011;39101;53.478;6.158;2022-11-20T01:41:42;7.43;;;4.00;;
51499;SDS011;39101;53.478;6.158;2022-11-20T01:50:05;10.00;;;4.80;;
51499;SDS011;39101;53.478;6.158;2022-11-20T01:52:43;8.03;;;4.53;;
51499;SDS011;39101;53.478;6.158;2022-11-20T01:55:18;7.97;;;4.53;;
51499;SDS011;39101;53.478;6.158;2022-11-20T01:57:49;7.27;;;4.17;;
51499;SDS011;39101;53.478;6.158;2022-11-20T02:00:16;8.37;;;4.07;;
51499;SDS011;39101;53.478;6.158;2022-11-20T02:02:51;7.23;;;4.50;;
51499;SDS011;39101;53.478;6.158;2022-11-20T02:05:36;8.13;;;5.00;;
51499;SDS011;39101;53.478;6.158;2022-11-20T02:08:10;8.07;;;3.97;;
51499;SDS011;39101;53.478;6.158;2022-11-20T02:10:36;6.87;;;3.97;;
51499;SDS011;39101;53.478;6.158;2022-11-20T02:13:02;6.87;;;3.97;;
51499;SDS011;39101;53.478;6.158;2022-11-20T02:15:47;6.60;;;3.63;;
51499;SDS011;39101;53.478;6.158;2022-11-20T02:18:14;8.00;;;4.73;;
51499;SDS011;39101;53.478;6.158;2022-11-20T02:20:42;7.87;;;4.67;;
51499;SDS011;39101;53.478;6.158;2022-11-20T02:25:46;7.70;;;4.53;;
51499;SDS011;39101;53.478;6.158;2022-11-20T02:28:12;9.57;;;5.03;;
51499;SDS011;39101;53.478;6.158;2022-11-20T02:30:38;7.07;;;4.50;;
51499;SDS011;39101;53.478;6.158;2022-11-20T02:33:04;8.13;;;4.10;;
51499;SDS011;39101;53.478;6.158;2022-11-20T02:37:56;8.27;;;4.00;;
51499;SDS011;39101;53.478;6.158;2022-11-20T02:40:27;7.20;;;4.10;;
51499;SDS011;39101;53.478;6.158;2022-11-20T02:42:54;8.73;;;4.60;;
51499;SDS011;39101;53.478;6.158;2022-11-20T02:45:20;8.77;;;4.80;;
51499;SDS011;39101;53.478;6.158;2022-11-20T02:47:46;9.97;;;4.70;;
51499;SDS011;39101;53.478;6.158;2022-11-20T02:50:11;8.07;;;5.47;;
51499;SDS011;39101;53.478;6.158;2022-11-20T02:52:37;9.80;;;5.07;;
51499;SDS011;39101;53.478;6.158;2022-11-20T02:55:03;8.67;;;5.37;;
51499;SDS011;39101;53.478;6.158;2022-11-20T02:57:29;11.10;;;6.37;;
51499;SDS011;39101;53.478;6.158;2022-11-20T02:59:55;10.10;;;5.97;;
51499;SDS011;39101;53.478;6.158;2022-11-20T03:02:20;11.53;;;6.10;;
51499;SDS011;39101;53.478;6.158;2022-11-20T03:04:46;8.57;;;5.70;;
51499;SDS011;39101;53.478;6.158;2022-11-20T03:07:12;8.93;;;5.87;;
51499;SDS011;39101;53.478;6.158;2022-11-20T03:09:38;9.40;;;5.13;;
51499;SDS011;39101;53.478;6.158;2022-11-20T03:12:03;11.30;;;6.37;;
51499;SDS011;39101;53.478;6.158;2022-11-20T03:14:29;9.43;;;4.73;;
51499;SDS011;39101;53.478;6.158;2022-11-20T03:16:55;7.73;;;4.43;;
51499;SDS011;39101;53.478;6.158;2022-11-20T03:19:21;8.70;;;4.90;;
51499;SDS011;39101;53.478;6.158;2022-11-20T03:21:47;6.73;;;4.10;;
51499;SDS011;39101;53.478;6.158;2022-11-20T03:24:12;8.97;;;4.60;;
51499;SDS011;39101;53.478;6.158;2022-11-20T03:26:39;8.50;;;5.03;;
51499;SDS011;39101;53.478;6.158;2022-11-20T03:29:05;8.10;;;5.10;;
51499;SDS011;39101;53.478;6.158;2022-11-20T03:31:31;10.90;;;5.03;;
51499;SDS011;39101;53.478;6.158;2022-11-20T03:33:59;9.57;;;5.60;;
51499;SDS011;39101;53.478;6.158;2022-11-20T03:36:26;11.90;;;6.87;;
51499;SDS011;39101;53.478;6.158;2022-11-20T03:38:53;9.83;;;5.90;;
51499;SDS011;39101;53.478;6.158;2022-11-20T03:41:20;10.07;;;6.43;;
51499;SDS011;39101;53.478;6.158;2022-11-20T03:43:51;8.83;;;5.90;;
51499;SDS011;39101;53.478;6.158;2022-11-20T03:46:25;12.20;;;6.57;;
51499;SDS011;39101;53.478;6.158;2022-11-20T03:48:52;10.20;;;6.27;;
51499;SDS011;39101;53.478;6.158;2022-11-20T03:51:19;9.97;;;6.40;;
51499;SDS011;39101;53.478;6.158;2022-11-20T03:53:47;11.63;;;6.90;;
51499;SDS011;39101;53.478;6.158;2022-11-20T03:56:15;11.43;;;6.57;;
51499;SDS011;39101;53.478;6.158;2022-11-20T03:58:42;11.50;;;6.73;;
51499;SDS011;39101;53.478;6.158;2022-11-20T04:01:09;11.50;;;6.93;;
51499;SDS011;39101;53.478;6.158;2022-11-20T04:03:39;11.40;;;6.70;;
51499;SDS011;39101;53.478;6.158;2022-11-20T04:06:07;10.20;;;6.20;;
51499;SDS011;39101;53.478;6.158;2022-11-20T04:08:35;10.57;;;6.23;;
51499;SDS011;39101;53.478;6.158;2022-11-20T04:11:10;10.53;;;5.87;;
51499;SDS011;39101;53.478;6.158;2022-11-20T04:13:40;13.03;;;6.33;;
51499;SDS011;39101;53.478;6.158;2022-11-20T04:16:07;9.73;;;6.20;;
51499;SDS011;39101;53.478;6.158;2022-11-20T04:18:34;10.87;;;6.63;;
51499;SDS011;39101;53.478;6.158;2022-11-20T04:21:01;9.93;;;5.97;;
51499;SDS011;39101;53.478;6.158;2022-11-20T04:23:27;11.80;;;7.00;;
51499;SDS011;39101;53.478;6.158;2022-11-20T04:25:53;10.13;;;6.37;;
51499;SDS011;39101;53.478;6.158;2022-11-20T04:28:19;13.33;;;6.43;;
51499;SDS011;39101;53.478;6.158;2022-11-20T04:30:45;9.53;;;6.10;;
51499;SDS011;39101;53.478;6.158;2022-11-20T04:33:10;10.33;;;6.13;;
51499;SDS011;39101;53.478;6.158;2022-11-20T04:35:36;9.67;;;6.20;;
51499;SDS011;39101;53.478;6.158;2022-11-20T04:38:03;12.53;;;6.00;;
51499;SDS011;39101;53.478;6.158;2022-11-20T04:40:29;11.33;;;6.77;;
51499;SDS011;39101;53.478;6.158;2022-11-20T04:42:55;11.30;;;6.43;;
51499;SDS011;39101;53.478;6.158;2022-11-20T04:45:21;12.70;;;6.37;;
51499;SDS011;39101;53.478;6.158;2022-11-20T04:47:47;11.73;;;6.50;;
51499;SDS011;39101;53.478;6.158;2022-11-20T04:50:13;11.80;;;5.70;;
51499;SDS011;39101;53.478;6.158;2022-11-20T04:52:39;10.20;;;5.63;;
51499;SDS011;39101;53.478;6.158;2022-11-20T04:55:04;11.37;;;5.90;;
51499;SDS011;39101;53.478;6.158;2022-11-20T04:57:30;10.67;;;6.67;;
51499;SDS011;39101;53.478;6.158;2022-11-20T04:59:56;11.33;;;7.00;;
51499;SDS011;39101;53.478;6.158;2022-11-20T05:02:22;11.23;;;6.73;;
51499;SDS011;39101;53.478;6.158;2022-11-20T05:04:48;10.97;;;7.07;;
51499;SDS011;39101;53.478;6.158;2022-11-20T05:07:14;12.17;;;7.03;;
51499;SDS011;39101;53.478;6.158;2022-11-20T05:09:39;11.73;;;6.87;;
51499;SDS011;39101;53.478;6.158;2022-11-20T05:12:07;12.00;;;7.53;;
51499;SDS011;39101;53.478;6.158;2022-11-20T05:14:33;10.63;;;6.63;;
51499;SDS011;39101;53.478;6.158;2022-11-20T05:16:59;10.87;;;6.63;;
51499;SDS011;39101;53.478;6.158;2022-11-20T05:19:24;10.70;;;7.00;;
51499;SDS011;39101;53.478;6.158;2022-11-20T05:21:50;11.17;;;7.00;;
51499;SDS011;39101;53.478;6.158;2022-11-20T05:24:16;13.50;;;7.70;;
51499;SDS011;39101;53.478;6.158;2022-11-20T05:26:41;13.17;;;7.27;;
51499;SDS011;39101;53.478;6.158;2022-11-20T05:29:09;13.23;;;8.13;;
51499;SDS011;39101;53.478;6.158;2022-11-20T05:31:36;12.73;;;8.17;;
51499;SDS011;39101;53.478;6.158;2022-11-20T05:34:03;12.00;;;7.73;;
51499;SDS011;39101;53.478;6.158;2022-11-20T05:36:29;12.30;;;7.83;;
51499;SDS011;39101;53.478;6.158;2022-11-20T05:38:55;13.33;;;7.73;;
51499;SDS011;39101;53.478;6.158;2022-11-20T05:41:20;12.63;;;7.93;;
51499;SDS011;39101;53.478;6.158;2022-11-20T05:43:47;12.93;;;7.73;;
51499;SDS011;39101;53.478;6.158;2022-11-20T05:46:14;14.10;;;8.20;;
51499;SDS011;39101;53.478;6.158;2022-11-20T05:48:41;14.40;;;8.83;;
51499;SDS011;39101;53.478;6.158;2022-11-20T05:51:08;11.60;;;7.73;;
51499;SDS011;39101;53.478;6.158;2022-11-20T05:53:36;13.30;;;8.13;;
51499;SDS011;39101;53.478;6.158;2022-11-20T05:56:03;13.93;;;8.10;;
51499;SDS011;39101;53.478;6.158;2022-11-20T05:58:31;13.37;;;8.80;;
51499;SDS011;39101;53.478;6.158;2022-11-20T06:03:53;13.50;;;8.50;;
51499;SDS011;39101;53.478;6.158;2022-11-20T06:06:20;14.37;;;8.77;;
51499;SDS011;39101;53.478;6.158;2022-11-20T06:08:46;15.57;;;8.20;;
51499;SDS011;39101;53.478;6.158;2022-11-20T06:11:12;13.37;;;8.63;;
51499;SDS011;39101;53.478;6.158;2022-11-20T06:13:39;13.83;;;9.17;;
51499;SDS011;39101;53.478;6.158;2022-11-20T06:16:06;17.13;;;9.43;;
51499;SDS011;39101;53.478;6.158;2022-11-20T06:18:31;16.33;;;9.47;;
51499;SDS011;39101;53.478;6.158;2022-11-20T06:21:17;19.57;;;9.43;;
51499;SDS011;39101;53.478;6.158;2022-11-20T06:23:44;16.33;;;8.17;;
51499;SDS011;39101;53.478;6.158;2022-11-20T06:26:11;15.10;;;8.87;;
51499;SDS011;39101;53.478;6.158;2022-11-20T06:28:38;15.00;;;8.53;;
51499;SDS011;39101;53.478;6.158;2022-11-20T06:31:05;14.57;;;8.70;;
51499;SDS011;39101;53.478;6.158;2022-11-20T06:33:31;13.17;;;8.40;;
51499;SDS011;39101;53.478;6.158;2022-11-20T06:35:58;13.23;;;8.23;;
51499;SDS011;39101;53.478;6.158;2022-11-20T06:38:25;14.00;;;7.90;;
51499;SDS011;39101;53.478;6.158;2022-11-20T06:40:51;13.23;;;7.63;;
51499;SDS011;39101;53.478;6.158;2022-11-20T06:43:17;12.53;;;7.97;;
51499;SDS011;39101;53.478;6.158;2022-11-20T06:45:42;12.40;;;7.47;;
51499;SDS011;39101;53.478;6.158;2022-11-20T06:48:08;13.27;;;7.70;;
51499;SDS011;39101;53.478;6.158;2022-11-20T06:50:36;15.23;;;8.37;;
51499;SDS011;39101;53.478;6.158;2022-11-20T06:53:02;12.30;;;7.60;;
51499;SDS011;39101;53.478;6.158;2022-11-20T06:55:29;9.40;;;6.20;;
51499;SDS011;39101;53.478;6.158;2022-11-20T06:57:56;11.83;;;7.63;;
51499;SDS011;39101;53.478;6.158;2022-11-20T07:00:21;10.47;;;6.27;;
51499;SDS011;39101;53.478;6.158;2022-11-20T07:02:47;10.97;;;5.43;;
51499;SDS011;39101;53.478;6.158;2022-11-20T07:05:13;10.43;;;6.33;;
51499;SDS011;39101;53.478;6.158;2022-11-20T07:07:38;9.57;;;5.47;;
51499;SDS011;39101;53.478;6.158;2022-11-20T07:10:04;11.40;;;6.03;;
51499;SDS011;39101;53.478;6.158;2022-11-20T07:12:30;9.07;;;5.20;;
51499;SDS011;39101;53.478;6.158;2022-11-20T07:14:56;8.73;;;3.77;;
51499;SDS011;39101;53.478;6.158;2022-11-20T07:17:22;9.47;;;3.73;;
51499;SDS011;39101;53.478;6.158;2022-11-20T07:19:47;6.23;;;3.73;;
51499;SDS011;39101;53.478;6.158;2022-11-20T07:22:13;7.70;;;4.07;;
51499;SDS011;39101;53.478;6.158;2022-11-20T07:24:39;8.43;;;5.07;;
51499;SDS011;39101;53.478;6.158;2022-11-20T07:27:04;7.97;;;5.17;;
51499;SDS011;39101;53.478;6.158;2022-11-20T07:29:30;8.70;;;4.80;;
51499;SDS011;39101;53.478;6.158;2022-11-20T07:31:56;8.37;;;5.37;;
51499;SDS011;39101;53.478;6.158;2022-11-20T07:34:22;9.93;;;5.30;;
51499;SDS011;39101;53.478;6.158;2022-11-20T07:36:48;8.23;;;4.80;;
51499;SDS011;39101;53.478;6.158;2022-11-20T07:39:13;4.03;;;2.37;;
51499;SDS011;39101;53.478;6.158;2022-11-20T07:41:39;5.03;;;2.93;;
51499;SDS011;39101;53.478;6.158;2022-11-20T07:44:05;9.87;;;3.43;;
51499;SDS011;39101;53.478;6.158;2022-11-20T07:46:30;9.40;;;5.53;;
51499;SDS011;39101;53.478;6.158;2022-11-20T07:48:56;9.50;;;5.90;;
51499;SDS011;39101;53.478;6.158;2022-11-20T07:51:22;11.23;;;6.50;;
51499;SDS011;39101;53.478;6.158;2022-11-20T07:53:50;14.77;;;7.77;;
51499;SDS011;39101;53.478;6.158;2022-11-20T07:56:16;14.23;;;8.23;;
51499;SDS011;39101;53.478;6.158;2022-11-20T07:58:42;10.83;;;6.53;;
51499;SDS011;39101;53.478;6.158;2022-11-20T08:01:08;12.67;;;7.53;;
51499;SDS011;39101;53.478;6.158;2022-11-20T08:03:34;9.23;;;5.20;;
51499;SDS011;39101;53.478;6.158;2022-11-20T08:06:02;9.93;;;5.87;;
51499;SDS011;39101;53.478;6.158;2022-11-20T08:08:28;10.50;;;5.97;;
51499;SDS011;39101;53.478;6.158;2022-11-20T08:10:56;9.80;;;6.03;;
51499;SDS011;39101;53.478;6.158;2022-11-20T08:13:42;10.37;;;5.50;;
51499;SDS011;39101;53.478;6.158;2022-11-20T08:16:27;8.17;;;4.27;;
51499;SDS011;39101;53.478;6.158;2022-11-20T08:18:53;9.63;;;6.07;;
51499;SDS011;39101;53.478;6.158;2022-11-20T08:21:19;11.30;;;6.77;;
51499;SDS011;39101;53.478;6.158;2022-11-20T08:23:47;14.50;;;7.37;;
51499;SDS011;39101;53.478;6.158;2022-11-20T08:26:13;11.53;;;7.50;;
51499;SDS011;39101;53.478;6.158;2022-11-20T08:28:38;11.80;;;6.83;;
51499;SDS011;39101;53.478;6.158;2022-11-20T08:31:04;12.03;;;6.80;;
51499;SDS011;39101;53.478;6.158;2022-11-20T08:33:30;11.20;;;6.77;;
51499;SDS011;39101;53.478;6.158;2022-11-20T08:36:04;12.57;;;8.17;;
51499;SDS011;39101;53.478;6.158;2022-11-20T08:38:30;12.40;;;7.80;;
51499;SDS011;39101;53.478;6.158;2022-11-20T08:41:00;14.73;;;7.63;;
51499;SDS011;39101;53.478;6.158;2022-11-20T08:43:46;12.95;;;7.55;;
51499;SDS011;39101;53.478;6.158;2022-11-20T08:46:12;12.20;;;7.63;;
51499;SDS011;39101;53.478;6.158;2022-11-20T08:48:38;11.43;;;6.73;;
51499;SDS011;39101;53.478;6.158;2022-11-20T08:51:04;12.47;;;7.77;;
51499;SDS011;39101;53.478;6.158;2022-11-20T08:53:29;12.03;;;6.90;;
51499;SDS011;39101;53.478;6.158;2022-11-20T08:55:56;11.33;;;7.77;;
51499;SDS011;39101;53.478;6.158;2022-11-20T08:58:22;12.73;;;7.63;;
51499;SDS011;39101;53.478;6.158;2022-11-20T09:00:47;13.77;;;8.13;;
51499;SDS011;39101;53.478;6.158;2022-11-20T09:03:13;13.60;;;7.80;;
51499;SDS011;39101;53.478;6.158;2022-11-20T09:05:39;12.17;;;7.87;;
51499;SDS011;39101;53.478;6.158;2022-11-20T09:08:04;14.80;;;8.00;;
51499;SDS011;39101;53.478;6.158;2022-11-20T09:10:30;14.57;;;8.60;;
51499;SDS011;39101;53.478;6.158;2022-11-20T09:12:57;13.93;;;9.07;;
51499;SDS011;39101;53.478;6.158;2022-11-20T09:15:23;11.70;;;7.90;;
51499;SDS011;39101;53.478;6.158;2022-11-20T09:17:53;15.03;;;9.27;;
51499;SDS011;39101;53.478;6.158;2022-11-20T09:20:20;13.80;;;9.55;;
51499;SDS011;39101;53.478;6.158;2022-11-20T09:22:45;14.20;;;9.90;;
51499;SDS011;39101;53.478;6.158;2022-11-20T09:25:11;16.37;;;10.20;;
51499;SDS011;39101;53.478;6.158;2022-11-20T09:27:37;13.07;;;8.93;;
51499;SDS011;39101;53.478;6.158;2022-11-20T09:30:02;12.73;;;8.13;;
51499;SDS011;39101;53.478;6.158;2022-11-20T09:32:28;14.63;;;9.20;;
51499;SDS011;39101;53.478;6.158;2022-11-20T09:34:54;14.73;;;9.33;;
51499;SDS011;39101;53.478;6.158;2022-11-20T09:37:20;15.27;;;10.43;;
51499;SDS011;39101;53.478;6.158;2022-11-20T09:39:46;16.43;;;9.50;;
51499;SDS011;39101;53.478;6.158;2022-11-20T09:42:14;17.03;;;9.43;;
51499;SDS011;39101;53.478;6.158;2022-11-20T09:53:11;16.10;;;9.90;;
51499;SDS011;39101;53.478;6.158;2022-11-20T09:55:41;14.57;;;9.57;;
51499;SDS011;39101;53.478;6.158;2022-11-20T09:58:08;17.23;;;9.83;;
51499;SDS011;39101;53.478;6.158;2022-11-20T10:01:10;13.57;;;9.70;;
51499;SDS011;39101;53.478;6.158;2022-11-20T10:07:26;16.50;;;9.70;;
51499;SDS011;39101;53.478;6.158;2022-11-20T10:09:37;14.27;;;8.97;;
51499;SDS011;39101;53.478;6.158;2022-11-20T10:23:34;15.02;;;9.68;;
51499;SDS011;39101;53.478;6.158;2022-11-20T10:29:09;13.97;;;8.77;;
51499;SDS011;39101;53.478;6.158;2022-11-20T10:32:02;15.70;;;9.67;;
51499;SDS011;39101;53.478;6.158;2022-11-20T10:37:09;15.43;;;9.57;;
51499;SDS011;39101;53.478;6.158;2022-11-20T10:39:49;14.67;;;9.30;;
51499;SDS011;39101;53.478;6.158;2022-11-20T10:47:51;14.23;;;9.70;;
51499;SDS011;39101;53.478;6.158;2022-11-20T10:50:30;16.30;;;10.57;;
51499;SDS011;39101;53.478;6.158;2022-11-20T10:52:59;14.80;;;9.20;;
51499;SDS011;39101;53.478;6.158;2022-11-20T11:01:14;14.73;;;9.93;;
51499;SDS011;39101;53.478;6.158;2022-11-20T11:03:41;15.07;;;9.33;;
51499;SDS011;39101;53.478;6.158;2022-11-20T11:06:33;14.40;;;9.53;;
51499;SDS011;39101;53.478;6.158;2022-11-20T11:09:10;12.43;;;8.83;;
51499;SDS011;39101;53.478;6.158;2022-11-20T11:11:40;14.87;;;9.80;;
51499;SDS011;39101;53.478;6.158;2022-11-20T11:14:10;14.30;;;10.10;;
51499;SDS011;39101;53.478;6.158;2022-11-20T11:16:44;15.33;;;9.90;;
51499;SDS011;39101;53.478;6.158;2022-11-20T11:19:15;15.13;;;9.93;;
51499;SDS011;39101;53.478;6.158;2022-11-20T11:21:47;16.40;;;9.87;;
51499;SDS011;39101;53.478;6.158;2022-11-20T11:24:21;15.57;;;10.27;;
51499;SDS011;39101;53.478;6.158;2022-11-20T11:26:58;15.37;;;10.17;;
51499;SDS011;39101;53.478;6.158;2022-11-20T11:29:29;14.93;;;9.80;;
51499;SDS011;39101;53.478;6.158;2022-11-20T11:32:06;14.60;;;9.70;;
51499;SDS011;39101;53.478;6.158;2022-11-20T11:34:59;15.30;;;10.10;;
51499;SDS011;39101;53.478;6.158;2022-11-20T11:37:36;15.97;;;10.57;;
51499;SDS011;39101;53.478;6.158;2022-11-20T11:40:03;13.90;;;9.50;;
51499;SDS011;39101;53.478;6.158;2022-11-20T11:42:30;14.43;;;10.23;;
51499;SDS011;39101;53.478;6.158;2022-11-20T11:44:56;15.27;;;10.17;;
51499;SDS011;39101;53.478;6.158;2022-11-20T11:47:31;14.67;;;9.63;;
51499;SDS011;39101;53.478;6.158;2022-11-20T11:55:07;14.60;;;9.63;;
51499;SDS011;39101;53.478;6.158;2022-11-20T11:57:41;16.43;;;10.77;;
51499;SDS011;39101;53.478;6.158;2022-11-20T12:00:13;16.02;;;10.65;;
51499;SDS011;39101;53.478;6.158;2022-11-20T12:13:04;9.93;;;6.72;;
51499;SDS011;39101;53.478;6.158;2022-11-20T12:15:44;12.60;;;7.97;;
51499;SDS011;39101;53.478;6.158;2022-11-20T12:18:15;12.30;;;8.00;;
51499;SDS011;39101;53.478;6.158;2022-11-20T12:20:55;11.70;;;7.57;;
51499;SDS011;39101;53.478;6.158;2022-11-20T12:31:57;11.13;;;7.70;;
51499;SDS011;39101;53.478;6.158;2022-11-20T12:40:44;9.77;;;5.75;;
51499;SDS011;39101;53.478;6.158;2022-11-20T12:43:25;10.50;;;5.73;;
51499;SDS011;39101;53.478;6.158;2022-11-20T12:46:23;8.87;;;5.40;;
51499;SDS011;39101;53.478;6.158;2022-11-20T12:51:38;9.50;;;5.83;;
51499;SDS011;39101;53.478;6.158;2022-11-20T13:05:17;8.73;;;5.57;;
51499;SDS011;39101;53.478;6.158;2022-11-20T13:07:44;11.10;;;5.47;;
51499;SDS011;39101;53.478;6.158;2022-11-20T13:10:22;11.83;;;5.67;;
51499;SDS011;39101;53.478;6.158;2022-11-20T13:13:01;8.83;;;5.87;;
51499;SDS011;39101;53.478;6.158;2022-11-20T13:15:39;8.33;;;5.43;;
51499;SDS011;39101;53.478;6.158;2022-11-20T13:18:12;10.10;;;5.23;;
51499;SDS011;39101;53.478;6.158;2022-11-20T13:20:43;7.13;;;4.77;;
51499;SDS011;39101;53.478;6.158;2022-11-20T13:23:10;7.50;;;4.70;;
51499;SDS011;39101;53.478;6.158;2022-11-20T13:25:37;9.63;;;4.87;;
51499;SDS011;39101;53.478;6.158;2022-11-20T13:30:36;9.33;;;5.10;;
51499;SDS011;39101;53.478;6.158;2022-11-20T13:33:32;8.63;;;4.93;;
51499;SDS011;39101;53.478;6.158;2022-11-20T13:38:27;7.20;;;4.90;;
51499;SDS011;39101;53.478;6.158;2022-11-20T13:41:07;7.07;;;4.80;;
51499;SDS011;39101;53.478;6.158;2022-11-20T13:43:51;8.67;;;4.90;;
51499;SDS011;39101;53.478;6.158;2022-11-20T13:46:17;9.97;;;5.40;;
51499;SDS011;39101;53.478;6.158;2022-11-20T13:48:49;8.60;;;5.40;;
51499;SDS011;39101;53.478;6.158;2022-11-20T14:01:57;9.40;;;5.37;;
51499;SDS011;39101;53.478;6.158;2022-11-20T14:04:27;9.23;;;5.13;;
51499;SDS011;39101;53.478;6.158;2022-11-20T14:06:56;6.97;;;4.93;;
51499;SDS011;39101;53.478;6.158;2022-11-20T14:11:55;8.03;;;4.70;;
51499;SDS011;39101;53.478;6.158;2022-11-20T14:14:23;7.63;;;4.83;;
51499;SDS011;39101;53.478;6.158;2022-11-20T14:17:04;7.87;;;4.63;;
51499;SDS011;39101;53.478;6.158;2022-11-20T14:19:41;7.20;;;4.60;;
51499;SDS011;39101;53.478;6.158;2022-11-20T14:24:39;6.70;;;4.23;;
51499;SDS011;39101;53.478;6.158;2022-11-20T14:27:04;8.67;;;4.57;;
51499;SDS011;39101;53.478;6.158;2022-11-20T14:29:46;8.50;;;4.60;;
51499;SDS011;39101;53.478;6.158;2022-11-20T14:32:15;7.73;;;4.77;;
51499;SDS011;39101;53.478;6.158;2022-11-20T14:34:44;9.48;;;5.35;;
51499;SDS011;39101;53.478;6.158;2022-11-20T14:37:13;8.70;;;5.10;;
51499;SDS011;39101;53.478;6.158;2022-11-20T14:39:49;9.37;;;4.50;;
51499;SDS011;39101;53.478;6.158;2022-11-20T14:42:24;8.67;;;5.10;;
51499;SDS011;39101;53.478;6.158;2022-11-20T14:44:52;8.27;;;5.17;;
51499;SDS011;39101;53.478;6.158;2022-11-20T14:47:22;7.97;;;5.13;;
51499;SDS011;39101;53.478;6.158;2022-11-20T14:49:51;8.83;;;5.50;;
51499;SDS011;39101;53.478;6.158;2022-11-20T14:52:21;9.13;;;5.60;;
51499;SDS011;39101;53.478;6.158;2022-11-20T14:54:58;10.67;;;5.80;;
51499;SDS011;39101;53.478;6.158;2022-11-20T14:57:26;9.33;;;5.47;;
51499;SDS011;39101;53.478;6.158;2022-11-20T15:00:06;10.67;;;6.50;;
51499;SDS011;39101;53.478;6.158;2022-11-20T15:02:32;7.23;;;4.93;;
51499;SDS011;39101;53.478;6.158;2022-11-20T15:04:59;9.13;;;5.40;;
51499;SDS011;39101;53.478;6.158;2022-11-20T15:07:30;9.63;;;5.47;;
51499;SDS011;39101;53.478;6.158;2022-11-20T15:12:28;7.75;;;4.88;;
51499;SDS011;39101;53.478;6.158;2022-11-20T15:14:55;10.63;;;6.63;;
51499;SDS011;39101;53.478;6.158;2022-11-20T15:17:20;10.70;;;7.07;;
51499;SDS011;39101;53.478;6.158;2022-11-20T15:19:46;11.20;;;6.20;;
51499;SDS011;39101;53.478;6.158;2022-11-20T15:22:12;9.60;;;5.50;;
51499;SDS011;39101;53.478;6.158;2022-11-20T15:24:38;9.77;;;6.70;;
51499;SDS011;39101;53.478;6.158;2022-11-20T15:27:03;8.37;;;5.90;;
51499;SDS011;39101;53.478;6.158;2022-11-20T15:29:29;11.17;;;6.97;;
51499;SDS011;39101;53.478;6.158;2022-11-20T15:31:55;11.07;;;6.80;;
51499;SDS011;39101;53.478;6.158;2022-11-20T15:34:21;9.23;;;6.17;;
51499;SDS011;39101;53.478;6.158;2022-11-20T15:36:47;9.80;;;6.17;;
51499;SDS011;39101;53.478;6.158;2022-11-20T15:39:12;9.33;;;6.07;;
51499;SDS011;39101;53.478;6.158;2022-11-20T15:41:38;10.03;;;6.87;;
51499;SDS011;39101;53.478;6.158;2022-11-20T15:44:04;9.27;;;5.93;;
51499;SDS011;39101;53.478;6.158;2022-11-20T15:46:31;11.17;;;7.30;;
51499;SDS011;39101;53.478;6.158;2022-11-20T15:49:03;11.40;;;7.40;;
51499;SDS011;39101;53.478;6.158;2022-11-20T15:51:33;10.13;;;6.87;;
51499;SDS011;39101;53.478;6.158;2022-11-20T15:54:00;10.47;;;6.70;;
51499;SDS011;39101;53.478;6.158;2022-11-20T15:56:28;11.57;;;7.30;;
51499;SDS011;39101;53.478;6.158;2022-11-20T15:58:54;11.90;;;7.07;;
51499;SDS011;39101;53.478;6.158;2022-11-20T16:01:21;11.77;;;8.00;;
51499;SDS011;39101;53.478;6.158;2022-11-20T16:03:47;10.90;;;6.33;;
51499;SDS011;39101;53.478;6.158;2022-11-20T16:06:13;9.83;;;6.07;;
51499;SDS011;39101;53.478;6.158;2022-11-20T16:08:41;9.93;;;6.23;;
51499;SDS011;39101;53.478;6.158;2022-11-20T16:11:06;12.97;;;7.33;;
51499;SDS011;39101;53.478;6.158;2022-11-20T16:13:35;11.63;;;6.87;;
51499;SDS011;39101;53.478;6.158;2022-11-20T16:16:23;10.83;;;7.07;;
51499;SDS011;39101;53.478;6.158;2022-11-20T16:18:53;10.67;;;6.40;;
51499;SDS011;39101;53.478;6.158;2022-11-20T16:21:19;10.00;;;6.50;;
51499;SDS011;39101;53.478;6.158;2022-11-20T16:23:45;11.60;;;6.67;;
51499;SDS011;39101;53.478;6.158;2022-11-20T16:26:12;11.40;;;6.87;;
51499;SDS011;39101;53.478;6.158;2022-11-20T16:28:39;9.13;;;6.23;;
51499;SDS011;39101;53.478;6.158;2022-11-20T16:31:23;10.47;;;6.97;;
51499;SDS011;39101;53.478;6.158;2022-11-20T16:33:49;10.67;;;6.93;;
51499;SDS011;39101;53.478;6.158;2022-11-20T16:36:16;10.00;;;6.40;;
51499;SDS011;39101;53.478;6.158;2022-11-20T16:38:43;13.17;;;6.93;;
51499;SDS011;39101;53.478;6.158;2022-11-20T16:41:09;10.70;;;6.80;;
51499;SDS011;39101;53.478;6.158;2022-11-20T16:43:54;11.20;;;6.50;;
51499;SDS011;39101;53.478;6.158;2022-11-20T16:46:28;12.13;;;7.37;;
51499;SDS011;39101;53.478;6.158;2022-11-20T16:48:56;12.07;;;7.17;;